createdAt,value
2018-12-15T00:02:08.935Z,46.83
2018-12-15T00:04:36.488Z,48.60
2018-12-15T00:07:04.472Z,51.03
2018-12-15T00:09:32.018Z,58.60
2018-12-15T00:12:00.480Z,59.03
2018-12-15T00:14:28.311Z,53.40
2018-12-15T00:16:56.079Z,48.00
2018-12-15T00:19:23.783Z,52.87
2018-12-15T00:21:51.659Z,50.63
2018-12-15T00:24:19.663Z,50.77
2018-12-15T00:26:47.802Z,53.03
2018-12-15T00:29:15.347Z,51.00
2018-12-15T00:31:43.361Z,57.50
2018-12-15T00:34:10.931Z,57.93
2018-12-15T00:36:39.019Z,52.27
2018-12-15T00:39:07.218Z,48.57
2018-12-15T00:41:35.001Z,60.03
2018-12-15T00:44:02.869Z,60.53
2018-12-15T00:46:30.411Z,60.37
2018-12-15T00:48:58.559Z,55.20
2018-12-15T00:51:26.123Z,69.83
2018-12-15T00:53:54.294Z,52.60
2018-12-15T00:56:22.002Z,47.93
2018-12-15T00:58:49.556Z,53.13
2018-12-15T01:01:17.722Z,58.43
2018-12-15T01:03:45.258Z,63.37
2018-12-15T01:06:13.453Z,56.63
2018-12-15T01:08:41.002Z,57.40
2018-12-15T01:11:08.772Z,44.40
2018-12-15T01:13:36.334Z,62.13
2018-12-15T01:16:04.196Z,56.07
2018-12-15T01:18:31.795Z,46.23
2018-12-15T01:20:59.841Z,52.03
2018-12-15T01:23:27.382Z,57.93
2018-12-15T01:25:55.941Z,52.50
2018-12-15T01:28:23.537Z,54.40
2018-12-15T01:30:51.304Z,52.03
2018-12-15T01:33:19.495Z,52.53
2018-12-15T01:35:47.253Z,59.90
2018-12-15T01:38:14.803Z,44.73
2018-12-15T01:40:42.673Z,47.67
2018-12-15T01:43:10.209Z,47.90
2018-12-15T01:45:38.095Z,45.50
2018-12-15T01:48:05.632Z,45.47
2018-12-15T01:50:33.660Z,35.77
2018-12-15T01:53:01.217Z,45.90
2018-12-15T01:55:28.955Z,41.67
2018-12-15T01:57:56.487Z,37.13
2018-12-15T02:00:25.119Z,44.87
2018-12-15T02:02:52.652Z,39.70
2018-12-15T02:05:20.620Z,44.03
2018-12-15T02:07:48.135Z,43.33
2018-12-15T02:10:15.955Z,39.30
2018-12-15T02:12:43.491Z,38.97
2018-12-15T02:15:11.259Z,37.83
2018-12-15T02:17:38.787Z,32.83
2018-12-15T02:20:06.817Z,28.73
2018-12-15T02:22:34.356Z,37.30
2018-12-15T02:25:03.208Z,36.83
2018-12-15T02:27:30.745Z,31.67
2018-12-15T02:29:58.584Z,32.80
2018-12-15T02:32:26.640Z,34.67
2018-12-15T02:34:54.517Z,31.17
2018-12-15T02:37:22.076Z,28.33
2018-12-15T02:39:49.794Z,33.43
2018-12-15T02:42:17.864Z,32.40
2018-12-15T02:44:45.575Z,31.23
2018-12-15T02:47:13.186Z,30.50
2018-12-15T02:49:40.895Z,32.37
2018-12-15T02:52:08.443Z,26.93
2018-12-15T02:54:37.047Z,28.37
2018-12-15T02:57:04.582Z,26.93
2018-12-15T02:59:32.585Z,23.40
2018-12-15T03:02:00.120Z,31.77
2018-12-15T03:04:28.083Z,32.53
2018-12-15T03:06:55.615Z,28.67
2018-12-15T03:09:23.631Z,24.77
2018-12-15T03:11:51.182Z,26.37
2018-12-15T03:14:19.027Z,23.70
2018-12-15T03:17:04.257Z,24.80
2018-12-15T03:19:32.458Z,28.90
2018-12-15T03:22:00.021Z,25.63
2018-12-15T03:24:27.967Z,28.60
2018-12-15T03:26:55.848Z,22.30
2018-12-15T03:29:23.371Z,24.73
2018-12-15T03:31:51.400Z,23.50
2018-12-15T03:34:19.416Z,21.10
2018-12-15T03:36:47.563Z,25.37
2018-12-15T03:39:15.095Z,27.17
2018-12-15T03:41:42.806Z,22.70
2018-12-15T03:44:10.349Z,26.87
2018-12-15T03:46:38.149Z,27.50
2018-12-15T03:49:05.699Z,30.63
2018-12-15T03:51:33.537Z,28.07
2018-12-15T03:54:01.067Z,24.73
2018-12-15T03:56:29.056Z,30.83
2018-12-15T03:58:56.651Z,26.07
2018-12-15T04:01:24.393Z,29.27
2018-12-15T04:03:52.063Z,25.80
2018-12-15T04:06:20.061Z,24.60
2018-12-15T04:08:47.603Z,26.13
2018-12-15T04:11:15.639Z,26.17
2018-12-15T04:13:43.164Z,26.10
2018-12-15T04:16:10.957Z,36.10
2018-12-15T04:18:38.966Z,23.13
2018-12-15T04:21:06.740Z,27.70
2018-12-15T04:23:34.293Z,26.23
2018-12-15T04:26:02.640Z,30.60
2018-12-15T04:28:30.184Z,33.17
2018-12-15T04:30:58.329Z,27.40
2018-12-15T04:33:26.453Z,25.93
2018-12-15T04:35:54.491Z,30.37
2018-12-15T04:38:22.643Z,36.83
2018-12-15T04:40:50.466Z,29.53
2018-12-15T04:43:18.070Z,30.77
2018-12-15T04:45:45.981Z,30.60
2018-12-15T04:48:13.513Z,31.57
2018-12-15T04:50:41.486Z,33.00
2018-12-15T04:53:09.025Z,35.23
2018-12-15T04:55:36.827Z,34.90
2018-12-15T04:58:04.458Z,34.37
2018-12-15T05:00:32.106Z,38.83
2018-12-15T05:02:59.721Z,39.13
2018-12-15T05:05:27.878Z,32.63
2018-12-15T05:07:56.213Z,29.97
2018-12-15T05:10:24.035Z,28.60
2018-12-15T05:12:51.555Z,37.10
2018-12-15T05:15:19.357Z,37.03
2018-12-15T05:17:46.894Z,39.30
2018-12-15T05:20:14.839Z,36.47
2018-12-15T05:22:42.366Z,39.57
2018-12-15T05:25:10.954Z,41.57
2018-12-15T05:27:38.511Z,36.40
2018-12-15T05:30:06.756Z,43.53
2018-12-15T05:32:34.290Z,43.00
2018-12-15T05:35:02.244Z,38.67
2018-12-15T05:37:29.770Z,43.33
2018-12-15T05:39:57.614Z,48.83
2018-12-15T05:42:25.188Z,44.30
2018-12-15T05:44:53.547Z,41.50
2018-12-15T05:47:21.083Z,50.00
2018-12-15T05:49:48.912Z,46.03
2018-12-15T05:52:16.432Z,45.03
2018-12-15T05:54:44.532Z,51.23
2018-12-15T05:57:15.001Z,37.20
2018-12-15T05:59:44.024Z,44.93
2018-12-15T06:02:11.948Z,39.30
2018-12-15T06:04:39.956Z,38.17
2018-12-15T06:07:07.482Z,40.07
2018-12-15T06:09:35.277Z,44.03
2018-12-15T06:12:02.819Z,41.10
2018-12-15T06:14:30.950Z,44.37
2018-12-15T06:16:58.529Z,43.23
2018-12-15T06:19:26.555Z,49.07
2018-12-15T06:21:54.113Z,45.73
2018-12-15T06:24:22.065Z,39.53
2018-12-15T06:26:50.095Z,41.47
2018-12-15T06:29:17.812Z,50.80
2018-12-15T06:31:45.592Z,48.10
2018-12-15T06:34:13.125Z,42.00
2018-12-15T06:36:40.738Z,42.90
2018-12-15T06:39:08.581Z,40.20
2018-12-15T06:41:36.111Z,45.77
2018-12-15T06:44:04.427Z,40.53
2018-12-15T06:46:31.954Z,43.50
2018-12-15T06:48:59.489Z,43.10
2018-12-15T06:51:27.745Z,44.10
2018-12-15T06:53:55.288Z,42.33
2018-12-15T06:56:24.967Z,48.10
2018-12-15T06:58:52.513Z,44.13
2018-12-15T07:01:20.479Z,45.00
2018-12-15T07:03:48.024Z,37.67
2018-12-15T07:06:15.803Z,44.07
2018-12-15T07:08:43.336Z,42.50
2018-12-15T07:11:11.292Z,38.43
2018-12-15T07:13:38.826Z,44.83
2018-12-15T07:16:06.666Z,44.83
2018-12-15T07:18:34.516Z,49.80
2018-12-15T07:21:02.415Z,41.67
2018-12-15T07:23:29.940Z,50.00
2018-12-15T07:25:58.123Z,48.80
2018-12-15T07:28:25.660Z,47.83
2018-12-15T07:30:53.455Z,46.43
2018-12-15T07:33:21.014Z,43.73
2018-12-15T07:35:49.409Z,50.33
2018-12-15T07:38:16.952Z,43.50
2018-12-15T07:40:45.130Z,51.60
2018-12-15T07:43:12.684Z,60.60
2018-12-15T07:45:40.432Z,44.33
2018-12-15T07:48:07.973Z,58.87
2018-12-15T07:50:36.381Z,53.27
2018-12-15T07:53:03.997Z,46.23
2018-12-15T07:55:31.708Z,54.77
2018-12-15T07:57:59.241Z,49.43
2018-12-15T08:00:27.160Z,55.00
2018-12-15T08:02:54.705Z,42.80
2018-12-15T08:05:22.258Z,53.50
2018-12-15T08:07:50.233Z,51.50
2018-12-15T08:10:19.893Z,42.53
2018-12-15T08:12:49.841Z,57.47
2018-12-15T08:15:17.389Z,46.67
2018-12-15T08:17:45.369Z,41.80
2018-12-15T08:20:12.989Z,52.40
2018-12-15T08:22:40.676Z,54.60
2018-12-15T08:25:09.999Z,52.23
2018-12-15T08:27:37.542Z,53.50
2018-12-15T08:30:08.062Z,46.03
2018-12-15T08:32:35.682Z,48.83
2018-12-15T08:35:03.921Z,52.77
2018-12-15T08:37:31.742Z,53.20
2018-12-15T08:39:59.290Z,45.10
2018-12-15T08:42:27.248Z,48.60
2018-12-15T08:44:55.191Z,57.57
2018-12-15T08:47:23.205Z,59.00
2018-12-15T08:49:50.736Z,51.90
2018-12-15T08:52:19.000Z,55.27
2018-12-15T08:54:46.535Z,52.17
2018-12-15T08:57:16.430Z,53.83
2018-12-15T08:59:43.976Z,53.27
2018-12-15T09:02:11.730Z,59.70
2018-12-15T09:04:39.257Z,54.50
2018-12-15T09:07:07.420Z,55.63
2018-12-15T09:09:35.920Z,56.63
2018-12-15T09:12:03.856Z,52.63
2018-12-15T09:14:31.407Z,65.43
2018-12-15T09:16:59.384Z,72.27
2018-12-15T09:19:27.598Z,57.87
2018-12-15T09:21:56.148Z,71.27
2018-12-15T09:24:23.710Z,70.77
2018-12-15T09:26:51.825Z,64.20
2018-12-15T09:29:19.379Z,65.20
2018-12-15T09:31:47.234Z,61.63
2018-12-15T09:34:14.779Z,78.63
2018-12-15T09:36:42.952Z,69.17
2018-12-15T09:39:10.523Z,92.70
2018-12-15T09:41:38.451Z,66.03
2018-12-15T09:44:07.462Z,70.93
2018-12-15T09:46:35.728Z,75.20
2018-12-15T09:49:03.300Z,75.33
2018-12-15T09:51:31.154Z,71.77
2018-12-15T09:53:58.693Z,80.70
2018-12-15T09:56:26.687Z,69.47
2018-12-15T09:58:54.349Z,78.37
2018-12-15T10:01:22.218Z,79.70
2018-12-15T10:03:50.298Z,78.90
2018-12-15T10:06:17.963Z,85.37
2018-12-15T10:08:45.561Z,77.80
2018-12-15T10:11:13.263Z,84.00
2018-12-15T10:13:40.866Z,82.07
2018-12-15T10:16:09.256Z,80.60
2018-12-15T10:18:36.902Z,103.10
2018-12-15T10:21:04.815Z,76.43
2018-12-15T10:23:32.424Z,79.10
2018-12-15T10:26:00.882Z,80.07
2018-12-15T10:28:28.419Z,84.00
2018-12-15T10:31:01.619Z,77.57
2018-12-15T10:33:29.207Z,78.00
2018-12-15T10:35:57.063Z,82.90
2018-12-15T10:38:24.607Z,77.07
2018-12-15T10:40:53.832Z,75.57
2018-12-15T10:43:21.374Z,81.80
2018-12-15T10:45:49.165Z,75.93
2018-12-15T10:48:16.767Z,68.43
2018-12-15T10:50:45.072Z,65.97
2018-12-15T10:53:12.638Z,82.87
2018-12-15T10:55:40.288Z,83.10
2018-12-15T10:58:07.819Z,76.47
2018-12-15T11:00:41.462Z,69.43
2018-12-15T11:03:09.004Z,76.17
2018-12-15T11:05:37.159Z,77.23
2018-12-15T11:08:05.966Z,68.70
2018-12-15T11:10:33.960Z,60.87
2018-12-15T11:13:01.530Z,75.67
2018-12-15T11:15:29.198Z,65.47
2018-12-15T11:17:57.013Z,74.30
2018-12-15T11:20:24.817Z,75.10
2018-12-15T11:22:52.392Z,70.07
2018-12-15T11:25:20.465Z,79.40
2018-12-15T11:27:48.571Z,79.50
2018-12-15T11:30:17.016Z,65.50
2018-12-15T11:32:44.791Z,67.33
2018-12-15T11:35:14.042Z,87.37
2018-12-15T11:37:41.595Z,71.73
2018-12-15T11:40:09.403Z,67.50
2018-12-15T11:42:36.934Z,85.73
2018-12-15T11:45:05.471Z,82.00
2018-12-15T11:47:33.015Z,65.10
2018-12-15T11:50:02.123Z,81.30
2018-12-15T11:52:29.660Z,61.47
2018-12-15T11:54:57.188Z,70.27
2018-12-15T11:57:24.873Z,64.23
2018-12-15T11:59:52.425Z,55.10
2018-12-15T12:02:20.278Z,65.60
2018-12-15T12:04:47.832Z,74.37
2018-12-15T12:07:15.909Z,66.23
2018-12-15T12:09:43.560Z,70.00
2018-12-15T12:12:11.132Z,61.73
2018-12-15T12:14:38.773Z,68.00
2018-12-15T12:17:06.364Z,65.10
2018-12-15T12:19:34.253Z,72.40
2018-12-15T12:22:01.898Z,67.77
2018-12-15T12:24:29.954Z,63.50
2018-12-15T12:26:58.176Z,62.53
2018-12-15T12:29:26.116Z,65.97
2018-12-15T12:31:53.661Z,62.40
2018-12-15T12:34:21.815Z,55.70
2018-12-15T12:36:49.351Z,76.47
2018-12-15T12:39:16.906Z,70.53
2018-12-15T12:41:45.245Z,66.07
2018-12-15T12:44:12.793Z,75.53
2018-12-15T12:46:40.552Z,69.93
2018-12-15T12:49:08.106Z,61.10
2018-12-15T12:51:35.796Z,70.63
2018-12-15T12:54:03.528Z,58.23
2018-12-15T12:56:31.477Z,67.23
2018-12-15T12:58:59.014Z,57.20
2018-12-15T13:01:26.938Z,64.70
2018-12-15T13:03:54.549Z,63.37
2018-12-15T13:06:23.680Z,62.33
2018-12-15T13:08:51.217Z,62.60
2018-12-15T13:11:19.083Z,56.40
2018-12-15T13:13:46.641Z,60.20
2018-12-15T13:16:14.502Z,70.80
2018-12-15T13:18:42.043Z,67.17
2018-12-15T13:21:10.068Z,61.37
2018-12-15T13:23:37.621Z,69.00
2018-12-15T13:26:06.018Z,73.10
2018-12-15T13:28:33.556Z,63.10
2018-12-15T13:31:01.519Z,63.00
2018-12-15T13:33:32.421Z,67.87
2018-12-15T13:36:00.022Z,71.83
2018-12-15T13:38:28.315Z,78.83
2018-12-15T13:40:56.186Z,71.73
2018-12-15T13:43:23.827Z,60.03
2018-12-15T13:45:51.934Z,72.33
2018-12-15T13:48:19.606Z,64.20
2018-12-15T13:50:48.008Z,77.53
2018-12-15T13:53:16.916Z,76.13
2018-12-15T13:55:44.544Z,73.93
2018-12-15T13:58:12.434Z,81.43
2018-12-15T14:00:40.042Z,67.23
2018-12-15T14:03:07.758Z,68.20
2018-12-15T14:05:35.378Z,66.40
2018-12-15T14:08:03.681Z,69.70
2018-12-15T14:10:31.460Z,59.77
2018-12-15T14:12:59.060Z,65.43
2018-12-15T14:15:27.164Z,61.10
2018-12-15T14:17:54.819Z,77.40
2018-12-15T14:20:22.714Z,61.63
2018-12-15T14:22:50.358Z,72.23
2018-12-15T14:25:18.894Z,69.27
2018-12-15T14:27:46.439Z,68.93
2018-12-15T14:30:14.143Z,69.83
2018-12-15T14:32:41.844Z,70.77
2018-12-15T14:35:09.393Z,64.40
2018-12-15T14:37:37.182Z,72.47
2018-12-15T14:40:05.424Z,80.87
2018-12-15T14:42:32.994Z,63.23
2018-12-15T14:45:02.855Z,55.43
2018-12-15T14:47:30.389Z,62.27
2018-12-15T14:49:58.080Z,57.93
2018-12-15T14:52:25.793Z,61.00
2018-12-15T14:54:53.896Z,71.70
2018-12-15T14:57:24.742Z,88.20
2018-12-15T14:59:52.716Z,61.47
2018-12-15T15:02:20.292Z,76.47
2018-12-15T15:04:47.974Z,59.20
2018-12-15T15:07:15.511Z,66.40
2018-12-15T15:09:43.615Z,67.70
2018-12-15T15:12:11.191Z,73.70
2018-12-15T15:14:39.480Z,65.63
2018-12-15T15:17:07.266Z,65.17
2018-12-15T15:19:35.395Z,58.10
2018-12-15T15:22:02.959Z,78.87
2018-12-15T15:24:30.659Z,75.93
2018-12-15T15:26:59.894Z,63.33
2018-12-15T15:29:28.166Z,65.03
2018-12-15T15:31:55.737Z,63.67
2018-12-15T15:34:23.989Z,60.40
2018-12-15T15:36:51.723Z,65.70
2018-12-15T15:39:19.673Z,72.30
2018-12-15T15:41:47.376Z,68.10
2018-12-15T15:44:14.916Z,74.70
2018-12-15T15:46:42.787Z,60.10
2018-12-15T15:49:10.372Z,60.60
2018-12-15T15:51:38.619Z,80.93
2018-12-15T15:54:06.152Z,66.97
2018-12-15T15:56:34.029Z,67.83
2018-12-15T15:59:02.363Z,62.03
2018-12-15T16:01:30.739Z,68.13
2018-12-15T16:03:58.437Z,62.23
2018-12-15T16:06:26.146Z,64.70
2018-12-15T16:08:55.512Z,60.33
2018-12-15T16:11:23.110Z,59.00
2018-12-15T16:13:51.023Z,56.53
2018-12-15T16:16:33.504Z,74.23
2018-12-15T16:19:01.163Z,85.83
2018-12-15T16:21:29.099Z,67.60
2018-12-15T16:23:56.718Z,64.87
2018-12-15T16:26:24.825Z,65.80
2018-12-15T16:28:53.104Z,61.90
2018-12-15T16:31:20.857Z,64.97
2018-12-15T16:33:48.644Z,64.10
2018-12-15T16:36:16.566Z,54.70
2018-12-15T16:38:44.108Z,58.60
2018-12-15T16:41:12.227Z,64.13
2018-12-15T16:43:39.772Z,63.93
2018-12-15T16:46:07.427Z,64.63
2018-12-15T16:48:34.988Z,63.40
2018-12-15T16:51:03.235Z,66.10
2018-12-15T16:53:31.452Z,74.73
2018-12-15T16:55:59.596Z,68.60
2018-12-15T16:58:27.132Z,57.77
2018-12-15T17:00:55.162Z,71.23
2018-12-15T17:03:22.705Z,63.77
2018-12-15T17:05:50.370Z,62.70
2018-12-15T17:08:17.909Z,64.93
2018-12-15T17:10:45.880Z,63.77
2018-12-15T17:13:13.621Z,68.10
2018-12-15T17:15:41.316Z,64.83
2018-12-15T17:18:08.861Z,66.23
2018-12-15T17:20:37.166Z,68.80
2018-12-15T17:23:04.790Z,64.53
2018-12-15T17:25:32.626Z,65.40
2018-12-15T17:28:00.148Z,63.73
2018-12-15T17:30:27.834Z,70.83
2018-12-15T17:32:55.385Z,63.83
2018-12-15T17:35:23.363Z,62.13
2018-12-15T17:37:50.892Z,64.37
2018-12-15T17:40:18.674Z,54.53
2018-12-15T17:42:46.228Z,69.50
2018-12-15T17:45:14.269Z,68.47
2018-12-15T17:47:41.916Z,66.07
2018-12-15T17:50:09.994Z,74.07
2018-12-15T17:52:37.664Z,59.33
2018-12-15T17:55:06.691Z,66.87
2018-12-15T17:57:35.905Z,73.57
2018-12-15T18:00:05.933Z,64.57
2018-12-15T18:02:33.771Z,60.97
2018-12-15T18:05:01.333Z,67.27
2018-12-15T18:07:29.100Z,67.63
2018-12-15T18:09:56.637Z,70.27
2018-12-15T18:12:24.629Z,75.13
2018-12-15T18:14:52.174Z,60.60
2018-12-15T18:17:20.165Z,69.70
2018-12-15T18:19:47.707Z,63.90
2018-12-15T18:22:15.967Z,60.17
2018-12-15T18:24:43.510Z,71.60
2018-12-15T18:27:11.620Z,67.70
2018-12-15T18:29:39.167Z,70.13
2018-12-15T18:32:07.235Z,88.57
2018-12-15T18:34:34.777Z,69.87
2018-12-15T18:37:02.687Z,65.63
2018-12-15T18:39:30.359Z,67.93
2018-12-15T18:41:58.044Z,74.40
2018-12-15T18:44:25.598Z,72.50
2018-12-15T18:46:53.564Z,68.43
2018-12-15T18:49:21.108Z,73.87
2018-12-15T18:51:49.073Z,71.00
2018-12-15T18:54:16.619Z,79.13
2018-12-15T18:56:44.357Z,69.53
2018-12-15T18:59:12.095Z,67.97
2018-12-15T19:01:39.741Z,74.47
2018-12-15T19:04:07.282Z,68.77
2018-12-15T19:06:34.926Z,73.27
2018-12-15T19:09:04.238Z,72.07
2018-12-15T19:11:32.402Z,59.40
2018-12-15T19:13:59.970Z,70.73
2018-12-15T19:16:27.630Z,78.00
2018-12-15T19:18:55.166Z,72.80
2018-12-15T19:21:23.200Z,74.43
2018-12-15T19:23:51.023Z,73.23
2018-12-15T19:26:19.449Z,68.17
2018-12-15T19:28:47.011Z,78.23
2018-12-15T19:31:15.135Z,62.53
2018-12-15T19:33:42.704Z,70.60
2018-12-15T19:36:10.418Z,72.03
2018-12-15T19:38:38.067Z,66.40
2018-12-15T19:41:05.730Z,70.20
2018-12-15T19:43:33.305Z,84.20
2018-12-15T19:46:01.129Z,71.87
2018-12-15T19:48:28.671Z,80.27
2018-12-15T19:50:57.041Z,60.20
2018-12-15T19:53:24.591Z,67.23
2018-12-15T19:55:52.147Z,67.20
2018-12-15T19:58:20.033Z,59.57
2018-12-15T20:00:47.614Z,82.40
2018-12-15T20:03:15.503Z,80.63
2018-12-15T20:05:43.077Z,76.97
2018-12-15T20:08:11.091Z,73.30
2018-12-15T20:10:38.970Z,71.00
2018-12-15T20:13:06.519Z,71.47
2018-12-15T20:15:34.060Z,71.40
2018-12-15T20:18:01.746Z,84.50
2018-12-15T20:20:29.315Z,71.67
2018-12-15T20:22:56.862Z,75.13
2018-12-15T20:25:24.926Z,68.80
2018-12-15T20:27:53.161Z,83.73
2018-12-15T20:30:21.115Z,77.43
2018-12-15T20:32:48.667Z,73.60
2018-12-15T20:35:16.305Z,76.43
2018-12-15T20:37:44.454Z,69.97
2018-12-15T20:40:11.998Z,79.13
2018-12-15T20:42:40.002Z,67.63
2018-12-15T20:45:07.741Z,70.37
2018-12-15T20:47:35.453Z,70.17
2018-12-15T20:50:03.485Z,73.27
2018-12-15T20:52:31.157Z,74.23
2018-12-15T20:54:58.703Z,74.60
2018-12-15T20:57:26.378Z,77.00
2018-12-15T20:59:53.919Z,80.67
2018-12-15T21:02:21.468Z,72.27
2018-12-15T21:04:49.151Z,68.57
2018-12-15T21:07:16.705Z,69.30
2018-12-15T21:09:44.626Z,72.53
2018-12-15T21:12:12.277Z,80.30
2018-12-15T21:14:39.832Z,76.83
2018-12-15T21:17:07.570Z,76.60
2018-12-15T21:19:36.124Z,71.57
2018-12-15T21:22:05.762Z,86.80
2018-12-15T21:24:33.314Z,80.40
2018-12-15T21:27:01.792Z,75.53
2018-12-15T21:29:29.332Z,72.60
2018-12-15T21:31:57.330Z,73.77
2018-12-15T21:34:25.104Z,63.53
2018-12-15T21:36:52.653Z,86.63
2018-12-15T21:39:20.343Z,81.17
2018-12-15T21:41:47.889Z,78.53
2018-12-15T21:44:15.634Z,81.67
2018-12-15T21:46:43.174Z,64.57
2018-12-15T21:49:10.894Z,71.93
2018-12-15T21:51:38.447Z,91.33
2018-12-15T21:54:06.148Z,73.40
2018-12-15T21:56:33.693Z,72.60
2018-12-15T21:59:01.624Z,68.30
2018-12-15T22:01:29.165Z,81.90
2018-12-15T22:03:56.862Z,77.90
2018-12-15T22:06:24.403Z,81.00
2018-12-15T22:08:52.100Z,84.57
2018-12-15T22:11:19.632Z,73.57
2018-12-15T22:13:47.671Z,79.67
2018-12-15T22:16:15.240Z,83.97
2018-12-15T22:18:42.914Z,78.47
2018-12-15T22:21:10.445Z,78.30
2018-12-15T22:23:38.116Z,76.50
2018-12-15T22:26:05.666Z,74.13
2018-12-15T22:28:33.919Z,67.00
2018-12-15T22:31:01.470Z,77.87
2018-12-15T22:33:29.600Z,76.47
2018-12-15T22:35:57.154Z,81.17
2018-12-15T22:38:24.890Z,69.37
2018-12-15T22:40:52.428Z,73.20
2018-12-15T22:43:20.127Z,91.40
2018-12-15T22:45:47.791Z,83.17
2018-12-15T22:48:15.741Z,79.20
2018-12-15T22:50:43.640Z,77.63
2018-12-15T22:53:11.178Z,90.77
2018-12-15T22:55:38.931Z,77.07
2018-12-15T22:58:06.489Z,73.10
2018-12-15T23:00:36.558Z,77.63
2018-12-15T23:03:04.266Z,78.23
2018-12-15T23:05:31.960Z,67.00
2018-12-15T23:07:59.517Z,82.97
2018-12-15T23:10:27.377Z,73.70
2018-12-15T23:12:55.121Z,75.97
2018-12-15T23:15:22.663Z,84.50
2018-12-15T23:17:50.569Z,76.30
2018-12-15T23:20:18.125Z,76.20
2018-12-15T23:22:46.097Z,72.83
2018-12-15T23:25:13.709Z,80.20
2018-12-15T23:27:42.016Z,90.60
2018-12-15T23:30:09.728Z,77.10
2018-12-15T23:32:37.762Z,83.83
2018-12-15T23:35:05.469Z,76.73
2018-12-15T23:37:33.295Z,86.47
2018-12-15T23:40:00.861Z,74.90
2018-12-15T23:42:28.541Z,87.03
2018-12-15T23:44:56.109Z,70.83
2018-12-15T23:47:23.779Z,72.87
2018-12-15T23:49:51.331Z,83.47
2018-12-15T23:52:23.184Z,116.43
2018-12-15T23:54:48.746Z,88.90
2018-12-15T23:57:16.876Z,72.33
2018-12-15T23:59:44.411Z,77.70
